Time;durP1;ratioP1;P1;durP2;ratioP2;P2;SDS_P1;SDS_P2;PMS_P1;PMS_P2;Temp;Humidity;BMP_temperature;BMP_pressure;BME280_temperature;BME280_humidity;BME280_pressure;Samples;Min_cycle;Max_cycle;Signal;HPM_P1;HPM_P2
2021/07/04 00:01:24;;;;;;;27.50;24.50;;;18.40;99.90;;;;;;5081992;28;20678;-85
2021/07/04 00:03:55;;;;;;;28.27;24.73;;;18.30;99.90;;;;;;5093488;28;20221;-86
2021/07/04 00:06:24;;;;;;;27.10;24.20;;;18.30;99.90;;;;;;5078013;28;20235;-84
2021/07/04 00:08:53;;;;;;;28.73;25.17;;;18.20;99.90;;;;;;5072702;28;20208;-86
2021/07/04 00:11:22;;;;;;;28.93;25.87;;;18.20;99.90;;;;;;5076183;28;20207;-84
2021/07/04 00:13:52;;;;;;;30.23;26.40;;;18.20;99.90;;;;;;5076125;28;20212;-84
2021/07/04 00:16:21;;;;;;;27.80;24.77;;;18.30;99.90;;;;;;5082711;28;20205;-85
2021/07/04 00:18:50;;;;;;;28.87;25.87;;;18.20;99.90;;;;;;5073555;28;20258;-86
2021/07/04 00:21:19;;;;;;;30.17;26.60;;;18.20;99.90;;;;;;5081496;28;20253;-85
2021/07/04 00:23:47;;;;;;;29.07;25.47;;;18.20;99.90;;;;;;5075160;28;20674;-85
2021/07/04 00:26:16;;;;;;;30.60;26.60;;;18.20;99.90;;;;;;5082248;28;20224;-84
2021/07/04 00:28:45;;;;;;;30.33;26.23;;;18.20;99.90;;;;;;5076273;28;20217;-85
2021/07/04 00:31:15;;;;;;;31.80;27.30;;;18.20;99.90;;;;;;5080196;28;20200;-85
2021/07/04 00:33:44;;;;;;;30.47;26.77;;;18.30;99.90;;;;;;5076842;28;20243;-85
2021/07/04 00:36:12;;;;;;;30.03;26.67;;;18.30;99.90;;;;;;5074697;28;20293;-85
2021/07/04 00:38:41;;;;;;;29.90;26.20;;;18.30;99.90;;;;;;5076169;28;20217;-85
2021/07/04 00:41:10;;;;;;;32.53;26.30;;;18.30;99.90;;;;;;5078645;28;20258;-83
2021/07/04 00:43:38;;;;;;;30.03;26.70;;;18.30;99.90;;;;;;5100334;27;20199;-84
2021/07/04 00:46:07;;;;;;;32.00;27.67;;;18.30;99.90;;;;;;5092919;28;20231;-85
2021/07/04 00:48:37;;;;;;;31.87;26.40;;;18.30;99.90;;;;;;5078710;28;20205;-84
2021/07/04 00:51:06;;;;;;;32.47;28.53;;;18.30;99.90;;;;;;5076802;28;20615;-85
2021/07/04 00:53:34;;;;;;;33.00;27.47;;;18.30;99.90;;;;;;5088249;28;20404;-84
2021/07/04 00:56:03;;;;;;;31.90;27.07;;;18.30;99.90;;;;;;5091262;28;20527;-84
2021/07/04 00:58:33;;;;;;;34.67;27.20;;;18.10;99.90;;;;;;5075008;28;20197;-83
2021/07/04 01:01:01;;;;;;;34.00;26.53;;;18.30;99.90;;;;;;5074337;28;20301;-83
2021/07/04 01:03:30;;;;;;;32.43;26.60;;;18.30;99.90;;;;;;5089305;28;20197;-84
2021/07/04 01:06:02;;;;;;;31.00;26.63;;;18.30;99.90;;;;;;5094203;28;20200;-86
2021/07/04 01:08:30;;;;;;;32.30;27.27;;;18.30;99.90;;;;;;5098478;28;20474;-84
2021/07/04 01:11:01;;;;;;;32.90;26.63;;;18.30;99.90;;;;;;5101197;27;20184;-84
2021/07/04 01:13:30;;;;;;;30.63;26.60;;;18.30;99.90;;;;;;5095331;27;20215;-83
2021/07/04 01:15:59;;;;;;;30.27;26.23;;;18.30;99.90;;;;;;5089419;28;20204;-84
2021/07/04 01:18:28;;;;;;;30.27;26.50;;;18.30;99.90;;;;;;5084280;28;20705;-83
2021/07/04 01:20:58;;;;;;;32.37;27.77;;;18.30;99.90;;;;;;5088278;28;20210;-85
2021/07/04 01:23:28;;;;;;;31.93;26.80;;;18.30;99.90;;;;;;5094603;28;20478;-86
2021/07/04 01:25:57;;;;;;;32.70;27.30;;;18.20;99.90;;;;;;5090987;28;20779;-85
2021/07/04 01:28:26;;;;;;;31.00;25.53;;;18.20;99.90;;;;;;5082981;28;20228;-84
2021/07/04 01:30:57;;;;;;;34.30;26.27;;;18.20;99.90;;;;;;5079005;28;20204;-84
2021/07/04 01:33:28;;;;;;;31.80;27.03;;;18.20;99.90;;;;;;5082101;28;20334;-84
2021/07/04 01:35:58;;;;;;;33.47;26.70;;;18.30;99.90;;;;;;5081359;28;20282;-84
2021/07/04 01:38:28;;;;;;;31.00;26.20;;;18.30;99.90;;;;;;5083064;28;20205;-85
2021/07/04 01:40:57;;;;;;;30.27;26.40;;;18.20;99.90;;;;;;5084457;28;20282;-86
2021/07/04 01:43:25;;;;;;;31.27;25.67;;;18.30;99.90;;;;;;5090704;28;20235;-85
2021/07/04 01:45:54;;;;;;;36.00;28.17;;;18.30;99.90;;;;;;5093768;28;20600;-85
2021/07/04 01:48:23;;;;;;;29.93;26.17;;;18.30;99.90;;;;;;5074851;28;20588;-86
2021/07/04 01:50:52;;;;;;;33.27;27.50;;;18.30;99.90;;;;;;5077470;28;20250;-86
2021/07/04 01:53:21;;;;;;;32.93;27.03;;;18.30;99.90;;;;;;5079259;28;20224;-86
2021/07/04 01:55:52;;;;;;;42.53;30.57;;;18.30;99.90;;;;;;5076879;28;20244;-86
2021/07/04 01:58:20;;;;;;;34.73;28.43;;;18.30;99.90;;;;;;5074318;28;20207;-85
2021/07/04 02:00:49;;;;;;;37.63;28.90;;;18.30;99.90;;;;;;5074271;28;20211;-87
2021/07/04 02:03:18;;;;;;;38.40;29.57;;;18.30;99.90;;;;;;5080435;28;20662;-86
2021/07/04 02:05:46;;;;;;;41.83;29.97;;;18.30;99.90;;;;;;5080805;28;20220;-88
2021/07/04 02:08:15;;;;;;;35.27;29.20;;;18.30;99.90;;;;;;5071732;28;20250;-85
2021/07/04 02:10:44;;;;;;;38.87;29.73;;;18.30;99.90;;;;;;5081050;28;20685;-87
2021/07/04 02:13:14;;;;;;;38.00;29.07;;;18.30;99.90;;;;;;5079429;28;20682;-85
2021/07/04 02:15:42;;;;;;;38.80;29.60;;;18.30;99.90;;;;;;5091769;28;20232;-84
2021/07/04 02:18:14;;;;;;;38.33;29.83;;;18.30;99.90;;;;;;5098702;28;20192;-85
2021/07/04 02:20:44;;;;;;;37.53;30.03;;;18.30;99.90;;;;;;5100418;27;20231;-85
2021/07/04 02:23:15;;;;;;;39.90;30.63;;;18.30;99.90;;;;;;5084665;28;20193;-84
2021/07/04 02:25:46;;;;;;;43.87;30.13;;;18.20;99.90;;;;;;5080332;28;20449;-85
2021/07/04 02:28:18;;;;;;;38.60;29.90;;;18.20;99.90;;;;;;5077606;28;20285;-84
2021/07/04 02:30:48;;;;;;;41.53;30.70;;;18.20;99.90;;;;;;5081955;28;20208;-85
2021/07/04 02:33:18;;;;;;;39.23;30.63;;;18.20;99.90;;;;;;5081104;28;20612;-85
2021/07/04 02:35:48;;;;;;;42.37;30.97;;;18.20;99.90;;;;;;5089114;28;20288;-86
2021/07/04 02:38:18;;;;;;;46.60;30.90;;;18.20;99.90;;;;;;5074431;28;20203;-84
2021/07/04 02:40:52;;;;;;;42.37;31.37;;;18.20;99.90;;;;;;5087605;28;20204;-85
2021/07/04 02:43:25;;;;;;;45.00;31.30;;;18.20;99.90;;;;;;5080050;28;20205;-85
2021/07/04 02:45:55;;;;;;;45.10;32.07;;;18.20;99.90;;;;;;5080378;28;20201;-85
2021/07/04 02:48:24;;;;;;;45.63;32.83;;;18.20;99.90;;;;;;5078480;28;20216;-85
2021/07/04 02:50:52;;;;;;;44.30;33.90;;;18.20;99.90;;;;;;5086274;28;20258;-84
2021/07/04 02:53:22;;;;;;;49.37;32.60;;;18.20;99.90;;;;;;5092737;28;20602;-85
2021/07/04 02:55:50;;;;;;;48.37;33.50;;;18.20;99.90;;;;;;5087605;28;20308;-87
2021/07/04 02:58:19;;;;;;;53.33;33.70;;;18.20;99.90;;;;;;5084368;28;20270;-85
2021/07/04 03:00:49;;;;;;;49.43;33.70;;;18.20;99.90;;;;;;5086941;28;20220;-85
2021/07/04 03:03:18;;;;;;;45.17;32.23;;;18.20;99.90;;;;;;5099713;28;20212;-86
2021/07/04 03:05:48;;;;;;;45.97;32.00;;;18.20;99.90;;;;;;5090078;27;20729;-86
2021/07/04 03:08:17;;;;;;;48.57;32.07;;;18.10;99.90;;;;;;5079061;28;20225;-86
2021/07/04 03:10:46;;;;;;;43.37;31.83;;;18.10;99.90;;;;;;5080311;28;20638;-86
2021/07/04 03:13:14;;;;;;;40.83;31.40;;;18.20;99.90;;;;;;5076970;28;20327;-86
2021/07/04 03:15:43;;;;;;;46.63;32.87;;;18.20;99.90;;;;;;5101425;27;20218;-85
2021/07/04 03:18:13;;;;;;;44.43;32.40;;;18.10;99.90;;;;;;5089594;27;20264;-85
2021/07/04 03:20:42;;;;;;;42.40;31.53;;;18.10;99.90;;;;;;5084161;28;20205;-85
2021/07/04 03:23:11;;;;;;;46.77;32.73;;;18.10;99.90;;;;;;5078542;28;20219;-85
2021/07/04 03:25:40;;;;;;;43.27;30.97;;;18.10;99.90;;;;;;5085290;28;20239;-84
2021/07/04 03:28:08;;;;;;;45.87;31.37;;;18.10;99.90;;;;;;5084351;28;20238;-85
2021/07/04 03:30:37;;;;;;;41.33;30.87;;;18.10;99.90;;;;;;5087914;27;20219;-85
2021/07/04 03:33:07;;;;;;;41.40;30.43;;;18.20;99.90;;;;;;5073204;28;20216;-84
2021/07/04 03:35:37;;;;;;;42.00;31.13;;;18.20;99.90;;;;;;5097280;28;20204;-85
2021/07/04 03:38:06;;;;;;;41.60;29.90;;;18.20;99.90;;;;;;5074705;28;20563;-85
2021/07/04 03:40:35;;;;;;;39.93;31.27;;;18.20;99.90;;;;;;5100688;28;20192;-85
2021/07/04 03:43:03;;;;;;;42.37;30.23;;;18.20;99.90;;;;;;5099634;28;20196;-85
2021/07/04 03:45:32;;;;;;;42.00;29.47;;;18.20;99.90;;;;;;5093862;27;20201;-84
2021/07/04 03:48:01;;;;;;;43.17;30.70;;;18.30;99.90;;;;;;5095450;27;20211;-84
2021/07/04 03:50:29;;;;;;;39.33;29.37;;;18.30;99.90;;;;;;5093431;28;20320;-85
2021/07/04 03:53:01;;;;;;;39.80;28.20;;;18.30;99.90;;;;;;5075865;28;20262;-86
2021/07/04 03:55:29;;;;;;;41.80;29.03;;;18.30;99.90;;;;;;5087200;27;20261;-86
2021/07/04 03:57:59;;;;;;;41.60;28.07;;;18.40;99.90;;;;;;5077781;28;21240;-83
2021/07/04 04:00:28;;;;;;;38.87;28.13;;;18.40;99.90;;;;;;5089005;28;21627;-84
2021/07/04 04:02:56;;;;;;;35.67;27.73;;;18.40;99.90;;;;;;5075731;28;20650;-86
2021/07/04 04:05:25;;;;;;;37.07;27.37;;;18.40;99.90;;;;;;5082234;28;20223;-87
2021/07/04 04:07:54;;;;;;;37.53;27.47;;;18.50;99.90;;;;;;5079775;28;20200;-85
2021/07/04 04:10:24;;;;;;;35.00;28.10;;;18.50;99.90;;;;;;5075368;28;20209;-84
2021/07/04 04:12:52;;;;;;;33.63;26.20;;;18.50;99.90;;;;;;5076623;28;20199;-85
2021/07/04 04:15:21;;;;;;;33.17;26.37;;;18.50;99.90;;;;;;5072399;28;20701;-85
2021/07/04 04:17:49;;;;;;;34.20;25.87;;;18.50;99.90;;;;;;5074242;28;20224;-86
2021/07/04 04:20:18;;;;;;;33.30;26.30;;;18.50;99.90;;;;;;5071772;28;20289;-84
2021/07/04 04:22:46;;;;;;;30.20;25.87;;;18.50;99.90;;;;;;5076892;28;20776;-84
2021/07/04 04:25:15;;;;;;;35.17;26.27;;;18.60;99.90;;;;;;5074088;28;20695;-85
2021/07/04 04:27:45;;;;;;;33.20;26.27;;;18.60;99.90;;;;;;5080505;28;20201;-83
2021/07/04 04:30:15;;;;;;;34.43;26.60;;;18.60;99.90;;;;;;5074428;28;20232;-85
2021/07/04 04:32:44;;;;;;;32.23;25.57;;;18.80;99.90;;;;;;5074976;28;20212;-85
2021/07/04 04:35:14;;;;;;;36.17;26.80;;;18.70;99.90;;;;;;5073000;28;20196;-86
2021/07/04 04:37:42;;;;;;;34.43;26.70;;;18.70;99.90;;;;;;5073672;28;20207;-84
2021/07/04 04:40:12;;;;;;;34.73;25.23;;;18.70;99.90;;;;;;5071211;28;20228;-85
2021/07/04 04:42:42;;;;;;;36.00;27.63;;;18.70;99.90;;;;;;5077240;28;20208;-85
2021/07/04 04:45:14;;;;;;;32.23;24.83;;;18.80;99.90;;;;;;5086990;28;20486;-85
2021/07/04 04:47:43;;;;;;;33.80;27.10;;;18.90;99.90;;;;;;5098667;27;20193;-85
2021/07/04 04:50:12;;;;;;;35.20;25.43;;;18.80;99.90;;;;;;5103475;27;20220;-84
2021/07/04 04:52:44;;;;;;;31.47;24.13;;;18.90;99.90;;;;;;5096187;28;20205;-86
2021/07/04 04:55:13;;;;;;;31.93;24.50;;;19.00;99.90;;;;;;5095450;28;20205;-81
2021/07/04 04:57:43;;;;;;;32.00;24.33;;;19.00;99.90;;;;;;5079925;28;20213;-85
2021/07/04 05:00:15;;;;;;;28.90;22.90;;;19.10;99.90;;;;;;5081267;28;20219;-83
2021/07/04 05:02:44;;;;;;;32.07;23.90;;;19.30;99.90;;;;;;5087468;28;20212;-84
2021/07/04 05:05:14;;;;;;;34.50;23.50;;;19.30;99.90;;;;;;5096534;28;20200;-86
2021/07/04 05:07:43;;;;;;;28.73;22.73;;;19.40;99.90;;;;;;5093602;28;20200;-84
2021/07/04 05:10:13;;;;;;;26.83;21.30;;;19.50;99.90;;;;;;5087210;27;20565;-85
2021/07/04 05:12:42;;;;;;;27.20;22.70;;;19.60;99.90;;;;;;5099341;27;20208;-84
2021/07/04 05:15:13;;;;;;;29.33;21.83;;;19.60;99.90;;;;;;5104060;27;20284;-85
2021/07/04 05:17:42;;;;;;;24.53;20.70;;;19.60;99.90;;;;;;5105499;27;20315;-84
2021/07/04 05:20:12;;;;;;;27.67;23.17;;;19.60;99.90;;;;;;5105280;27;20181;-86
2021/07/04 05:22:41;;;;;;;25.87;21.73;;;19.60;99.90;;;;;;5105447;27;20796;-86
2021/07/04 05:25:13;;;;;;;28.33;21.97;;;19.50;99.90;;;;;;5103351;27;20212;-84
2021/07/04 05:27:41;;;;;;;26.80;21.70;;;19.50;99.90;;;;;;5100979;28;20440;-85
2021/07/04 05:30:13;;;;;;;27.63;22.30;;;19.40;99.90;;;;;;5095151;28;20229;-86
2021/07/04 05:32:42;;;;;;;29.70;21.37;;;19.40;99.90;;;;;;5084033;28;20254;-86
2021/07/04 05:35:12;;;;;;;25.70;21.17;;;19.40;99.90;;;;;;5082642;28;20200;-86
2021/07/04 05:37:41;;;;;;;28.47;22.03;;;19.40;99.90;;;;;;5081523;28;20215;-86
2021/07/04 05:40:14;;;;;;;28.53;22.70;;;19.50;99.90;;;;;;5075844;28;20211;-86
2021/07/04 05:42:44;;;;;;;25.50;20.53;;;19.60;99.90;;;;;;5081233;28;20209;-85
2021/07/04 05:45:20;;;;;;;23.63;19.87;;;19.60;99.90;;;;;;5078932;28;20208;-85
2021/07/04 05:47:49;;;;;;;25.87;20.80;;;19.60;99.90;;;;;;5078021;28;20201;-87
2021/07/04 05:50:18;;;;;;;22.10;19.30;;;19.60;99.90;;;;;;5078497;28;20733;-85
2021/07/04 05:52:47;;;;;;;24.33;20.70;;;19.60;99.90;;;;;;5077060;28;20212;-85
2021/07/04 05:55:16;;;;;;;23.80;20.53;;;19.60;99.90;;;;;;5077762;28;20512;-84
2021/07/04 05:57:45;;;;;;;29.33;21.40;;;19.60;99.90;;;;;;5075651;28;20239;-85
2021/07/04 06:00:16;;;;;;;22.77;19.80;;;19.70;99.90;;;;;;5080103;28;20228;-85
2021/07/04 06:02:45;;;;;;;23.87;20.00;;;19.80;99.90;;;;;;5101082;28;20185;-87
2021/07/04 06:05:17;;;;;;;23.47;20.10;;;20.00;99.90;;;;;;5097079;28;20264;-85
2021/07/04 06:07:46;;;;;;;23.67;20.00;;;20.10;99.90;;;;;;5098159;28;20288;-85
2021/07/04 06:10:15;;;;;;;22.83;19.87;;;20.00;99.90;;;;;;5096303;28;20227;-83
2021/07/04 06:12:44;;;;;;;22.30;19.93;;;20.10;99.90;;;;;;5101218;28;20204;-84
2021/07/04 06:15:14;;;;;;;23.80;20.27;;;20.10;99.90;;;;;;5098392;28;20204;-85
2021/07/04 06:17:45;;;;;;;23.67;19.77;;;20.10;99.90;;;;;;5090751;28;20653;-84
2021/07/04 06:20:16;;;;;;;22.37;19.57;;;20.20;99.90;;;;;;5088020;28;20215;-87
2021/07/04 06:22:45;;;;;;;23.73;19.03;;;20.10;99.90;;;;;;5087727;28;20193;-85
2021/07/04 06:25:16;;;;;;;23.47;19.63;;;20.10;99.90;;;;;;5098457;28;20209;-84
2021/07/04 06:27:45;;;;;;;25.10;20.97;;;20.10;99.90;;;;;;5084034;28;20224;-85
2021/07/04 06:30:14;;;;;;;26.37;21.30;;;20.10;99.90;;;;;;5097737;27;20216;-85
2021/07/04 06:32:45;;;;;;;22.83;18.47;;;20.20;99.90;;;;;;5107357;27;20453;-84
2021/07/04 06:35:16;;;;;;;23.57;19.63;;;20.20;99.90;;;;;;5102685;27;20207;-86
2021/07/04 06:37:46;;;;;;;25.83;19.80;;;20.20;99.90;;;;;;5106276;27;20189;-86
2021/07/04 06:40:16;;;;;;;21.53;19.20;;;20.20;99.90;;;;;;5106226;27;20180;-84
2021/07/04 06:42:44;;;;;;;24.67;18.90;;;20.30;99.90;;;;;;5105389;27;20195;-86
2021/07/04 06:45:16;;;;;;;21.67;17.87;;;20.40;99.90;;;;;;5106864;27;20204;-85
2021/07/04 06:47:49;;;;;;;21.27;17.83;;;20.50;99.90;;;;;;5102463;27;20209;-85
2021/07/04 06:50:20;;;;;;;19.13;17.07;;;20.60;99.90;;;;;;5105830;27;20323;-85
2021/07/04 06:52:50;;;;;;;19.97;17.60;;;20.70;99.90;;;;;;5094576;28;20396;-84
2021/07/04 06:55:20;;;;;;;21.00;17.23;;;20.80;99.90;;;;;;5080971;28;20224;-84
2021/07/04 06:57:50;;;;;;;20.10;18.00;;;20.70;98.80;;;;;;5080806;28;20208;-86
2021/07/04 07:00:20;;;;;;;23.58;17.60;;;20.80;99.50;;;;;;5077480;28;21380;-84
2021/07/04 07:02:50;;;;;;;19.23;16.77;;;20.90;99.50;;;;;;5081957;28;20555;-85
2021/07/04 07:05:19;;;;;;;19.52;17.00;;;21.00;99.90;;;;;;5074503;28;20459;-84
2021/07/04 07:07:48;;;;;;;19.73;16.15;;;21.20;99.90;;;;;;5071969;28;20208;-85
2021/07/04 07:10:17;;;;;;;20.55;16.88;;;21.20;98.30;;;;;;5078793;28;20300;-85
2021/07/04 07:12:45;;;;;;;17.67;15.88;;;21.30;98.60;;;;;;5078008;28;20231;-84
2021/07/04 07:15:18;;;;;;;18.40;15.30;;;21.40;97.20;;;;;;5084090;28;20659;-84
2021/07/04 07:17:47;;;;;;;16.92;15.18;;;21.40;97.00;;;;;;5090018;28;20277;-84
2021/07/04 07:20:18;;;;;;;21.25;17.27;;;21.50;97.10;;;;;;5103283;27;20203;-86
2021/07/04 07:22:47;;;;;;;18.33;15.23;;;21.50;96.80;;;;;;5091430;27;20208;-85
2021/07/04 07:25:16;;;;;;;17.40;15.38;;;21.50;95.70;;;;;;5077430;28;20233;-85
2021/07/04 07:27:45;;;;;;;17.67;15.75;;;21.50;95.60;;;;;;5081458;28;20201;-84
2021/07/04 07:30:15;;;;;;;18.45;15.52;;;21.60;95.50;;;;;;5086556;28;20307;-85
2021/07/04 07:32:44;;;;;;;18.63;16.10;;;21.60;95.20;;;;;;5101446;27;20204;-83
2021/07/04 07:35:14;;;;;;;17.33;15.32;;;21.70;95.30;;;;;;5100793;28;20205;-84
2021/07/04 07:37:50;;;;;;;20.20;15.90;;;21.60;94.60;;;;;;5098758;28;20193;-84
2021/07/04 07:40:19;;;;;;;16.70;14.63;;;21.70;95.50;;;;;;5103903;27;20221;-84
2021/07/04 07:42:49;;;;;;;15.77;14.18;;;21.90;94.50;;;;;;5099194;28;20235;-85
2021/07/04 07:45:19;;;;;;;16.50;14.57;;;22.10;94.70;;;;;;5100578;28;20232;-85
2021/07/04 07:47:50;;;;;;;16.45;14.73;;;22.30;93.30;;;;;;5102553;27;20256;-84
2021/07/04 07:50:19;;;;;;;15.50;13.80;;;22.40;92.80;;;;;;5101882;28;20229;-84
2021/07/04 07:52:49;;;;;;;15.45;13.73;;;22.50;92.60;;;;;;5103516;27;20221;-85
2021/07/04 07:55:18;;;;;;;16.20;14.02;;;22.50;92.40;;;;;;5098817;27;20236;-87
2021/07/04 07:57:47;;;;;;;16.35;14.75;;;22.50;92.70;;;;;;5083473;28;20215;-86
2021/07/04 08:00:19;;;;;;;15.95;14.32;;;22.40;92.70;;;;;;5090477;28;20208;-84
2021/07/04 08:02:48;;;;;;;15.52;13.93;;;22.30;92.90;;;;;;5085688;28;20201;-86
2021/07/04 08:05:18;;;;;;;15.90;14.18;;;22.50;93.30;;;;;;5082805;28;20323;-85
2021/07/04 08:07:53;;;;;;;15.52;13.93;;;22.60;92.80;;;;;;5080079;28;21239;-84
2021/07/04 08:10:23;;;;;;;15.15;13.60;;;22.70;93.20;;;;;;5084182;28;20681;-86
2021/07/04 08:12:52;;;;;;;17.35;13.85;;;22.90;91.80;;;;;;5085599;28;20452;-84
2021/07/04 08:15:22;;;;;;;17.30;15.07;;;22.80;91.60;;;;;;5079721;28;20204;-87
2021/07/04 08:17:52;;;;;;;14.73;13.20;;;22.70;92.20;;;;;;5079101;28;20196;-85
2021/07/04 08:20:22;;;;;;;15.18;13.18;;;22.60;93.00;;;;;;5078214;28;20291;-84
2021/07/04 08:22:52;;;;;;;15.52;14.00;;;22.90;92.70;;;;;;5094134;28;20236;-87
2021/07/04 08:25:21;;;;;;;14.43;13.02;;;23.20;92.20;;;;;;5093578;28;20246;-87
2021/07/04 08:27:49;;;;;;;15.10;13.38;;;23.50;92.30;;;;;;5087789;28;21118;-84
2021/07/04 08:30:18;;;;;;;15.68;12.70;;;23.80;90.60;;;;;;5091227;28;20410;-87
2021/07/04 08:32:47;;;;;;;14.40;12.73;;;23.80;90.40;;;;;;5080873;28;20207;-85
2021/07/04 08:35:16;;;;;;;15.82;13.32;;;23.90;90.90;;;;;;5084419;28;21142;-87
2021/07/04 08:37:45;;;;;;;15.13;13.52;;;24.00;90.30;;;;;;5088130;28;20219;-84
2021/07/04 08:40:17;;;;;;;15.35;13.00;;;24.00;90.10;;;;;;5092839;28;20242;-85
2021/07/04 08:42:46;;;;;;;13.88;12.35;;;24.10;90.40;;;;;;5088358;28;20211;-84
2021/07/04 08:45:17;;;;;;;14.63;12.43;;;24.30;90.10;;;;;;5091039;28;20568;-84
2021/07/04 08:47:46;;;;;;;13.88;12.40;;;24.50;90.00;;;;;;5090288;28;20209;-83
2021/07/04 08:50:24;;;;;;;14.30;12.88;;;24.60;88.40;;;;;;5086338;28;20196;-83
2021/07/04 08:52:53;;;;;;;14.05;12.48;;;24.60;88.40;;;;;;5092349;28;20526;-83
2021/07/04 08:55:24;;;;;;;13.82;12.45;;;24.50;88.80;;;;;;5089528;28;20240;-83
2021/07/04 08:57:57;;;;;;;13.68;12.27;;;24.50;88.80;;;;;;5087927;28;20632;-82
2021/07/04 09:00:27;;;;;;;14.68;13.30;;;24.50;89.10;;;;;;5097999;28;20192;-86
2021/07/04 09:02:57;;;;;;;13.35;11.95;;;24.70;89.20;;;;;;5097445;28;20208;-84
2021/07/04 09:05:45;;;;;;;14.98;13.38;;;24.80;88.50;;;;;;5085227;28;20233;-84
2021/07/04 09:08:19;;;;;;;13.27;11.95;;;24.70;87.70;;;;;;5083725;28;20973;-83
2021/07/04 09:11:14;;;;;;;12.88;11.68;;;24.70;88.90;;;;;;5087895;28;20201;-84
2021/07/04 09:13:44;;;;;;;16.75;15.15;;;24.80;89.10;;;;;;5083584;28;20763;-84
2021/07/04 09:16:20;;;;;;;13.60;12.25;;;25.00;88.20;;;;;;5082417;28;20205;-86
2021/07/04 09:19:14;;;;;;;14.50;11.75;;;25.00;87.30;;;;;;5081897;28;20208;-85
2021/07/04 09:21:44;;;;;;;13.43;12.13;;;24.90;88.40;;;;;;5079117;28;20205;-85
2021/07/04 09:24:23;;;;;;;13.77;12.48;;;24.70;87.80;;;;;;5083908;28;20773;-83
2021/07/04 09:26:54;;;;;;;12.88;11.63;;;24.70;88.00;;;;;;5077771;28;20258;-84
2021/07/04 09:29:42;;;;;;;12.68;11.02;;;24.70;88.00;;;;;;5078618;28;20280;-84
2021/07/04 09:32:15;;;;;;;13.68;12.27;;;24.80;89.20;;;;;;5085531;28;20246;-84
2021/07/04 09:34:58;;;;;;;13.15;11.85;;;24.80;87.70;;;;;;5098294;28;20204;-85
2021/07/04 09:37:32;;;;;;;13.60;12.30;;;24.80;88.80;;;;;;5077140;28;20238;-84
2021/07/04 09:40:22;;;;;;;12.85;11.65;;;24.90;88.50;;;;;;5093475;28;20197;-84
2021/07/04 09:43:22;;;;;;;13.18;11.98;;;24.90;88.50;;;;;;5090650;28;20204;-83
2021/07/04 09:45:57;;;;;;;13.23;11.93;;;24.90;87.70;;;;;;5082229;28;20209;-85
2021/07/04 09:48:43;;;;;;;12.85;11.65;;;25.00;88.00;;;;;;5077978;28;20191;-85
2021/07/04 09:51:19;;;;;;;13.52;12.23;;;25.00;87.60;;;;;;5090194;28;20200;-84
2021/07/04 09:53:49;;;;;;;13.18;11.88;;;24.90;88.00;;;;;;5098567;27;20207;-83
2021/07/04 09:56:23;;;;;;;14.52;13.10;;;25.00;87.00;;;;;;5101563;27;20208;-84
2021/07/04 09:58:56;;;;;;;13.27;11.98;;;24.80;88.00;;;;;;5102229;28;20192;-85
2021/07/04 10:01:37;;;;;;;12.32;11.15;;;24.70;89.20;;;;;;5100637;28;20201;-86
2021/07/04 10:04:08;;;;;;;12.43;11.15;;;24.60;88.40;;;;;;5082274;28;20810;-83
2021/07/04 10:06:48;;;;;;;12.35;11.18;;;24.60;88.60;;;;;;5085124;28;20204;-86
2021/07/04 10:09:26;;;;;;;12.93;11.52;;;24.80;88.40;;;;;;5083608;28;20193;-84
2021/07/04 10:11:55;;;;;;;12.70;11.40;;;25.30;87.70;;;;;;5088447;28;20223;-86
2021/07/04 10:14:28;;;;;;;12.07;10.98;;;25.90;87.40;;;;;;5085653;28;20201;-86
2021/07/04 10:17:00;;;;;;;12.80;11.60;;;26.00;86.80;;;;;;5080828;28;20293;-83
2021/07/04 10:19:31;;;;;;;12.50;11.13;;;26.30;86.70;;;;;;5080020;28;20825;-83
2021/07/04 10:22:03;;;;;;;12.77;11.60;;;26.40;85.20;;;;;;5086437;28;20269;-86
2021/07/04 10:24:33;;;;;;;13.02;11.73;;;26.50;85.50;;;;;;5088946;28;20230;-83
2021/07/04 10:27:05;;;;;;;13.43;11.60;;;26.50;84.80;;;;;;5086360;28;20686;-85
2021/07/04 10:29:35;;;;;;;13.98;11.70;;;26.50;85.40;;;;;;5080888;28;20213;-87
2021/07/04 10:32:08;;;;;;;11.02;9.93;;;26.20;85.20;;;;;;5084213;28;20255;-83
2021/07/04 10:34:48;;;;;;;11.88;10.77;;;26.10;86.20;;;;;;5079972;28;20208;-85
2021/07/04 10:37:32;;;;;;;13.10;11.75;;;26.20;86.10;;;;;;5081975;28;20582;-85
2021/07/04 10:40:17;;;;;;;12.68;11.45;;;26.40;85.40;;;;;;5076805;28;20234;-84
2021/07/04 10:42:46;;;;;;;12.07;10.95;;;26.40;85.40;;;;;;5083079;28;20208;-84
2021/07/04 10:45:35;;;;;;;11.88;10.70;;;26.40;85.40;;;;;;5089344;28;20197;-82
2021/07/04 10:48:20;;;;;;;12.77;11.45;;;26.40;84.90;;;;;;5087282;28;20221;-83
2021/07/04 10:51:10;;;;;;;12.85;11.52;;;26.20;84.80;;;;;;5083924;28;20572;-83
2021/07/04 10:53:43;;;;;;;12.40;11.20;;;25.70;84.90;;;;;;5079502;28;20228;-84
2021/07/04 10:56:43;;;;;;;11.50;10.43;;;25.80;85.60;;;;;;5083424;28;20262;-82
2021/07/04 10:59:14;;;;;;;12.50;11.23;;;26.00;84.40;;;;;;5073591;28;21369;-85
2021/07/04 11:01:54;;;;;;;10.35;9.23;;;25.70;84.90;;;;;;5095271;28;20523;-86
2021/07/04 11:04:52;;;;;;;11.88;9.85;;;25.60;84.60;;;;;;5084348;28;20211;-84
2021/07/04 11:07:21;;;;;;;10.68;9.68;;;25.60;84.10;;;;;;5092073;28;20259;-83
2021/07/04 11:10:17;;;;;;;11.13;10.15;;;25.70;84.30;;;;;;5096766;28;20205;-82
2021/07/04 11:12:48;;;;;;;12.23;10.40;;;26.10;84.70;;;;;;5097933;28;21148;-84
2021/07/04 11:15:30;;;;;;;9.10;8.20;;;26.20;84.30;;;;;;5102068;28;20208;-84
2021/07/04 11:18:09;;;;;;;9.55;8.65;;;26.10;83.40;;;;;;5094094;28;20208;-85
2021/07/04 11:20:58;;;;;;;9.57;8.68;;;26.30;84.00;;;;;;5096478;28;20938;-85
2021/07/04 11:23:27;;;;;;;9.88;8.98;;;26.30;83.40;;;;;;5096322;28;20200;-85
2021/07/04 11:25:58;;;;;;;10.80;9.73;;;26.30;84.00;;;;;;5084433;28;20204;-83
2021/07/04 11:28:28;;;;;;;10.50;9.50;;;26.60;83.20;;;;;;5079312;28;20204;-84
2021/07/04 11:31:25;;;;;;;10.63;9.55;;;26.80;83.60;;;;;;5086169;28;20220;-85
2021/07/04 11:34:08;;;;;;;9.77;8.88;;;27.00;82.30;;;;;;5090202;28;20370;-83
2021/07/04 11:36:37;;;;;;;11.90;9.18;;;26.90;82.70;;;;;;5089937;28;20180;-83
2021/07/04 11:39:09;;;;;;;10.07;9.18;;;27.10;82.90;;;;;;5105386;27;20193;-84
2021/07/04 11:41:39;;;;;;;11.63;9.50;;;27.40;82.60;;;;;;5095989;27;20204;-83
2021/07/04 11:44:11;;;;;;;10.52;9.52;;;27.70;81.70;;;;;;5093401;27;20764;-84
2021/07/04 11:46:41;;;;;;;12.55;10.05;;;27.70;81.20;;;;;;5080353;28;20212;-82
2021/07/04 11:49:14;;;;;;;11.35;10.20;;;27.60;81.20;;;;;;5080251;28;20204;-82
2021/07/04 11:51:45;;;;;;;10.82;9.85;;;27.90;81.00;;;;;;5091533;28;20192;-84
2021/07/04 11:54:17;;;;;;;12.07;10.88;;;27.70;80.00;;;;;;5082177;28;20654;-83
2021/07/04 11:56:49;;;;;;;10.48;9.48;;;27.20;80.10;;;;;;5092457;27;21034;-85
2021/07/04 11:59:21;;;;;;;11.40;9.75;;;27.30;81.70;;;;;;5090308;27;20350;-84
2021/07/04 12:01:57;;;;;;;8.88;8.02;;;27.50;81.20;;;;;;5078784;28;20198;-82
2021/07/04 12:04:33;;;;;;;8.02;7.22;;;27.70;80.60;;;;;;5082285;28;20196;-86
2021/07/04 12:07:07;;;;;;;4.88;4.28;;;27.50;80.00;;;;;;5079562;28;20771;-84
2021/07/04 12:09:41;;;;;;;5.95;5.45;;;25.80;81.00;;;;;;5081661;28;20192;-86
2021/07/04 12:12:21;;;;;;;5.15;4.65;;;24.30;84.40;;;;;;5081396;28;20208;-84
2021/07/04 12:14:52;;;;;;;5.38;4.85;;;23.50;86.30;;;;;;5091604;28;20208;-83
2021/07/04 12:17:30;;;;;;;6.85;4.93;;;23.00;87.30;;;;;;5082723;28;20723;-84
2021/07/04 12:20:09;;;;;;;4.47;3.33;;;22.50;88.20;;;;;;5089787;28;20701;-84
2021/07/04 12:22:43;;;;;;;5.90;3.90;;;22.00;91.10;;;;;;5088163;28;20226;-85
2021/07/04 12:25:17;;;;;;;5.03;3.97;;;21.10;95.70;;;;;;5085601;28;20491;-85
2021/07/04 12:27:48;;;;;;;8.03;4.80;;;20.10;99.90;;;;;;5087338;28;20212;-85
2021/07/04 12:30:24;;;;;;;9.17;6.10;;;19.40;99.90;;;;;;5089840;28;20209;-83
2021/07/04 12:32:59;;;;;;;7.47;6.10;;;19.20;99.90;;;;;;5094730;28;20306;-84
2021/07/04 12:35:38;;;;;;;6.97;6.23;;;19.20;99.90;;;;;;5085152;28;20573;-87
2021/07/04 12:38:10;;;;;;;7.40;5.90;;;19.20;99.90;;;;;;5083499;28;20209;-85
2021/07/04 12:40:51;;;;;;;8.33;5.80;;;19.20;99.90;;;;;;5090410;28;20204;-86
2021/07/04 12:43:24;;;;;;;6.63;5.53;;;19.10;99.90;;;;;;5093242;28;20199;-85
2021/07/04 12:45:55;;;;;;;6.10;5.50;;;19.20;99.90;;;;;;5090832;28;20688;-85
2021/07/04 12:48:26;;;;;;;6.20;5.23;;;19.10;99.90;;;;;;5085159;28;20213;-85
2021/07/04 12:51:07;;;;;;;6.10;5.50;;;19.20;99.90;;;;;;5092161;28;20713;-84